createdAt,value
2022-12-24T00:01:24.962Z,143.67
2022-12-24T00:03:54.779Z,140.40
2022-12-24T00:06:25.275Z,142.03
2022-12-24T00:08:53.904Z,138.30
2022-12-24T00:11:22.614Z,137.17
2022-12-24T00:13:51.391Z,137.53
2022-12-24T00:16:19.929Z,139.07
2022-12-24T00:18:48.395Z,134.90
2022-12-24T00:21:18.230Z,140.57
2022-12-24T00:23:46.798Z,146.20
2022-12-24T00:26:15.433Z,142.43
2022-12-24T00:28:44.084Z,148.97
2022-12-24T00:31:13.749Z,146.00
2022-12-24T00:33:42.220Z,150.23
2022-12-24T00:36:10.813Z,144.60
2022-12-24T00:38:40.554Z,148.70
2022-12-24T00:41:25.087Z,143.23
2022-12-24T00:43:54.485Z,145.30
2022-12-24T00:46:23.515Z,140.07
2022-12-24T00:48:52.241Z,138.10
2022-12-24T00:51:21.073Z,139.80
2022-12-24T00:53:51.054Z,144.47
2022-12-24T00:56:19.795Z,143.67
2022-12-24T00:58:48.415Z,147.60
2022-12-24T01:01:17.677Z,135.50
2022-12-24T01:03:46.177Z,135.47
2022-12-24T01:06:14.865Z,136.87
2022-12-24T01:08:43.634Z,135.03
2022-12-24T01:11:13.874Z,137.87
2022-12-24T01:13:42.271Z,146.53
2022-12-24T01:16:15.894Z,144.63
2022-12-24T01:18:44.361Z,145.40
2022-12-24T01:21:12.926Z,154.17
2022-12-24T01:23:41.375Z,151.53
2022-12-24T01:26:09.782Z,140.33
2022-12-24T01:28:40.003Z,144.93
2022-12-24T01:31:12.179Z,148.13
2022-12-24T01:33:40.809Z,156.27
2022-12-24T01:36:09.375Z,143.30
2022-12-24T01:38:37.801Z,145.33
2022-12-24T01:41:32.267Z,150.03
2022-12-24T01:44:15.561Z,151.27
2022-12-24T01:46:45.675Z,150.03
2022-12-24T01:49:15.703Z,149.63
2022-12-24T01:51:46.361Z,150.30
2022-12-24T01:54:16.514Z,143.93
2022-12-24T01:56:46.924Z,143.13
2022-12-24T01:59:16.936Z,140.70
2022-12-24T02:01:47.908Z,155.23
2022-12-24T02:04:19.346Z,145.53
2022-12-24T02:06:48.667Z,139.23
2022-12-24T02:09:17.108Z,141.10
2022-12-24T02:11:45.795Z,139.67
2022-12-24T02:14:15.115Z,149.70
2022-12-24T02:16:48.333Z,144.27
2022-12-24T02:19:35.419Z,139.30
2022-12-24T02:22:04.825Z,147.40
2022-12-24T02:24:48.055Z,144.50
2022-12-24T02:27:21.431Z,140.07
2022-12-24T02:30:04.293Z,142.03
2022-12-24T02:32:35.743Z,143.37
2022-12-24T02:35:06.383Z,146.47
2022-12-24T02:37:36.859Z,142.20
2022-12-24T02:40:13.794Z,142.20
2022-12-24T02:42:46.438Z,143.87
2022-12-24T02:45:17.539Z,142.30
2022-12-24T02:47:47.087Z,142.77
2022-12-24T02:50:16.414Z,140.53
2022-12-24T02:52:45.839Z,137.40
2022-12-24T02:55:16.247Z,131.70
2022-12-24T02:57:50.734Z,143.33
2022-12-24T03:00:21.355Z,138.97
2022-12-24T03:02:55.160Z,139.53
2022-12-24T03:05:30.034Z,144.10
2022-12-24T03:08:00.716Z,136.60
2022-12-24T03:10:33.512Z,145.93
2022-12-24T03:13:04.605Z,144.97
2022-12-24T03:15:34.710Z,137.97
2022-12-24T03:18:04.336Z,140.87
2022-12-24T03:20:35.204Z,141.27
2022-12-24T03:23:04.292Z,143.07
2022-12-24T03:25:34.230Z,143.33
2022-12-24T03:28:04.047Z,139.00
2022-12-24T03:30:34.524Z,137.83
2022-12-24T03:33:02.956Z,142.17
2022-12-24T03:35:31.396Z,146.83
2022-12-24T03:37:59.785Z,144.60
2022-12-24T03:40:28.171Z,143.90
2022-12-24T03:42:56.599Z,148.43
2022-12-24T03:45:25.047Z,149.00
2022-12-24T03:47:54.833Z,151.47
2022-12-24T03:50:23.517Z,147.40
2022-12-24T03:52:51.891Z,152.13
2022-12-24T03:55:20.265Z,154.53
2022-12-24T03:57:48.682Z,148.93
2022-12-24T04:00:17.852Z,149.07
2022-12-24T04:02:46.641Z,156.93
2022-12-24T04:05:17.525Z,163.80
2022-12-24T04:07:46.646Z,153.00
2022-12-24T04:10:15.337Z,152.60
2022-12-24T04:12:43.886Z,151.70
2022-12-24T04:15:12.568Z,155.27
2022-12-24T04:17:40.965Z,151.97
2022-12-24T04:20:10.010Z,154.40
2022-12-24T04:22:39.830Z,149.60
2022-12-24T04:25:08.907Z,151.07
2022-12-24T04:27:37.328Z,147.30
2022-12-24T04:30:06.129Z,141.60
2022-12-24T04:32:34.540Z,147.10
2022-12-24T04:35:03.117Z,175.07
2022-12-24T04:37:31.518Z,182.73
2022-12-24T04:40:01.276Z,165.70
2022-12-24T04:42:29.752Z,167.57
2022-12-24T04:44:58.519Z,161.93
2022-12-24T04:47:26.916Z,169.37
2022-12-24T04:49:55.579Z,166.13
2022-12-24T04:52:24.001Z,160.13
2022-12-24T04:54:52.381Z,162.10
2022-12-24T04:57:22.430Z,170.33
2022-12-24T04:59:50.819Z,166.70
2022-12-24T05:02:19.493Z,152.47
2022-12-24T05:04:48.010Z,158.60
2022-12-24T05:07:16.631Z,148.97
2022-12-24T05:09:45.003Z,152.30
2022-12-24T05:12:13.415Z,152.13
2022-12-24T05:14:43.210Z,148.60
2022-12-24T05:17:11.705Z,152.40
2022-12-24T05:19:40.182Z,142.13
2022-12-24T05:22:26.400Z,157.47
2022-12-24T05:25:20.708Z,153.60
2022-12-24T05:27:51.336Z,155.00
2022-12-24T05:30:21.440Z,153.63
2022-12-24T05:32:49.926Z,151.13
2022-12-24T05:35:18.323Z,155.47
2022-12-24T05:37:46.718Z,154.50
2022-12-24T05:40:15.228Z,166.73
2022-12-24T05:42:43.665Z,164.67
2022-12-24T05:45:12.193Z,168.13
2022-12-24T05:47:43.747Z,175.80
2022-12-24T05:50:12.643Z,176.80
2022-12-24T05:52:41.044Z,169.43
2022-12-24T05:55:10.174Z,163.63
2022-12-24T05:57:38.572Z,163.77
2022-12-24T06:00:08.063Z,157.47
2022-12-24T06:02:36.520Z,163.53
2022-12-24T06:05:06.649Z,161.20
2022-12-24T06:07:35.096Z,174.47
2022-12-24T06:10:03.678Z,171.67
2022-12-24T06:12:32.069Z,181.40
2022-12-24T06:15:00.530Z,177.93
2022-12-24T06:17:28.925Z,165.70
2022-12-24T06:19:57.305Z,167.40
2022-12-24T06:22:27.120Z,163.03
2022-12-24T06:24:55.565Z,163.57
2022-12-24T06:27:23.966Z,162.63
2022-12-24T06:29:52.365Z,165.37
2022-12-24T06:32:21.836Z,115.30
2022-12-24T06:34:50.228Z,118.30
2022-12-24T06:37:19.337Z,99.53
2022-12-24T06:39:49.747Z,123.17
2022-12-24T06:42:18.160Z,131.23
2022-12-24T06:44:46.570Z,112.20
2022-12-24T06:47:15.070Z,107.10
2022-12-24T06:49:43.438Z,92.73
2022-12-24T06:52:11.841Z,108.40
2022-12-24T06:54:40.247Z,98.70
2022-12-24T06:57:10.029Z,86.20
2022-12-24T06:59:38.466Z,83.23
2022-12-24T07:02:06.959Z,89.57
2022-12-24T07:04:35.571Z,80.77
2022-12-24T07:07:04.051Z,80.10
2022-12-24T07:09:33.451Z,105.43
2022-12-24T07:12:01.873Z,82.60
2022-12-24T07:14:31.640Z,80.53
2022-12-24T07:17:00.178Z,78.93
2022-12-24T07:19:28.646Z,81.23
2022-12-24T07:21:57.050Z,76.80
2022-12-24T07:24:25.517Z,70.87
2022-12-24T07:26:53.901Z,80.33
2022-12-24T07:29:22.514Z,78.97
2022-12-24T07:31:52.615Z,82.17
2022-12-24T07:34:21.034Z,75.37
2022-12-24T07:36:49.465Z,71.27
2022-12-24T07:39:17.850Z,70.07
2022-12-24T07:41:46.259Z,74.43
2022-12-24T07:44:15.083Z,71.20
2022-12-24T07:46:43.847Z,69.60
2022-12-24T07:49:13.672Z,65.17
2022-12-24T07:51:42.111Z,76.77
2022-12-24T07:54:10.545Z,99.90
2022-12-24T07:56:38.930Z,89.60
2022-12-24T07:59:07.312Z,76.43
2022-12-24T08:01:35.994Z,77.37
2022-12-24T08:04:04.562Z,76.53
2022-12-24T08:06:34.372Z,68.03
2022-12-24T08:09:02.831Z,74.50
2022-12-24T08:11:31.197Z,71.30
2022-12-24T08:13:59.725Z,71.47
2022-12-24T08:16:28.193Z,73.97
2022-12-24T08:18:56.618Z,68.33
2022-12-24T08:21:25.005Z,67.80
2022-12-24T08:23:54.760Z,65.33
2022-12-24T08:26:23.217Z,61.20
2022-12-24T08:28:51.646Z,89.47
2022-12-24T08:31:20.074Z,75.80
2022-12-24T08:33:48.499Z,71.47
2022-12-24T08:36:16.898Z,69.93
2022-12-24T08:38:45.366Z,69.37
2022-12-24T08:41:15.151Z,63.70
2022-12-24T08:43:43.624Z,62.13
2022-12-24T08:46:12.139Z,64.60
2022-12-24T08:48:40.550Z,73.90
2022-12-24T08:51:09.798Z,82.50
2022-12-24T08:53:38.219Z,72.47
2022-12-24T08:56:07.818Z,88.80
2022-12-24T08:58:37.903Z,83.03
2022-12-24T09:01:12.486Z,77.90
2022-12-24T09:03:41.102Z,76.53
2022-12-24T09:06:10.049Z,85.97
2022-12-24T09:08:38.667Z,83.27
2022-12-24T09:11:07.679Z,83.70
2022-12-24T09:13:37.561Z,81.73
2022-12-24T09:16:06.246Z,81.93
2022-12-24T09:18:35.137Z,87.80
2022-12-24T09:21:03.791Z,89.30
2022-12-24T09:23:33.748Z,95.40
2022-12-24T09:26:02.181Z,98.83
2022-12-24T09:28:30.593Z,98.90
2022-12-24T09:31:01.227Z,104.17
2022-12-24T09:33:30.233Z,106.73
2022-12-24T09:35:58.878Z,103.50
2022-12-24T09:38:27.528Z,114.00
2022-12-24T09:40:56.583Z,111.73
2022-12-24T09:43:26.049Z,112.00
2022-12-24T09:45:59.637Z,110.90
2022-12-24T09:48:31.202Z,114.40
2022-12-24T09:51:01.571Z,118.90
2022-12-24T09:53:31.964Z,118.97
2022-12-24T09:56:01.648Z,119.07
2022-12-24T09:58:33.970Z,120.33
2022-12-24T10:01:02.433Z,118.80
2022-12-24T10:03:32.774Z,128.20
2022-12-24T10:06:06.466Z,124.00
2022-12-24T10:08:40.327Z,132.27
2022-12-24T10:11:13.863Z,125.13
2022-12-24T10:13:48.900Z,134.67
2022-12-24T10:16:20.001Z,134.63
2022-12-24T10:18:52.726Z,138.13
2022-12-24T10:21:26.445Z,139.40
2022-12-24T10:23:57.020Z,135.63
2022-12-24T10:26:27.758Z,136.30
2022-12-24T10:28:59.707Z,142.97
2022-12-24T10:31:29.069Z,137.07
2022-12-24T10:34:01.756Z,140.10
2022-12-24T10:36:31.232Z,157.37
2022-12-24T10:38:59.779Z,150.27
2022-12-24T10:41:29.868Z,158.87
2022-12-24T10:43:58.900Z,145.57
2022-12-24T10:46:31.931Z,139.67
2022-12-24T10:49:03.283Z,147.87
2022-12-24T10:51:35.582Z,153.23
2022-12-24T10:54:07.840Z,160.80
2022-12-24T10:56:41.791Z,169.30
2022-12-24T10:59:24.277Z,167.10
2022-12-24T11:01:52.808Z,162.70
2022-12-24T11:04:23.908Z,160.50
2022-12-24T11:06:56.287Z,155.10
2022-12-24T11:09:26.095Z,164.03
2022-12-24T11:11:54.723Z,153.63
2022-12-24T11:14:23.379Z,168.93
2022-12-24T11:16:53.559Z,154.27
2022-12-24T11:19:26.158Z,172.40
2022-12-24T11:22:00.699Z,172.43
2022-12-24T11:24:30.273Z,165.63
2022-12-24T11:27:21.993Z,170.77
2022-12-24T11:29:50.471Z,175.13
2022-12-24T11:32:19.512Z,152.80
2022-12-24T11:34:49.679Z,164.93
2022-12-24T11:37:18.981Z,167.27
2022-12-24T11:39:49.370Z,164.17
2022-12-24T11:42:33.659Z,163.03
2022-12-24T11:45:03.064Z,180.63
2022-12-24T11:47:34.488Z,185.23
2022-12-24T11:50:18.931Z,175.30
2022-12-24T11:52:49.209Z,189.13
2022-12-24T11:55:21.388Z,191.13
2022-12-24T11:57:53.782Z,195.33
2022-12-24T12:00:22.318Z,195.53
2022-12-24T12:02:53.130Z,195.50
2022-12-24T12:05:23.139Z,198.40
2022-12-24T12:07:55.648Z,200.57
2022-12-24T12:10:25.269Z,202.43
2022-12-24T12:12:58.663Z,202.80
2022-12-24T12:15:28.277Z,198.70
2022-12-24T12:17:58.701Z,199.47
2022-12-24T12:20:28.563Z,205.00
2022-12-24T12:23:00.936Z,211.37
2022-12-24T12:25:32.781Z,202.57
2022-12-24T12:28:02.497Z,210.30
2022-12-24T12:30:31.464Z,209.80
2022-12-24T12:33:02.120Z,203.23
2022-12-24T12:35:32.217Z,193.23
2022-12-24T12:38:03.437Z,164.50
2022-12-24T12:40:36.063Z,191.70
2022-12-24T12:43:09.610Z,201.17
2022-12-24T12:45:46.158Z,188.07
2022-12-24T12:48:20.999Z,188.73
2022-12-24T12:50:52.446Z,192.13
2022-12-24T12:53:33.429Z,204.37
2022-12-24T12:56:04.728Z,206.03
2022-12-24T12:58:35.800Z,171.93
2022-12-24T13:01:06.359Z,175.27
2022-12-24T13:03:46.264Z,196.50
2022-12-24T13:06:29.694Z,182.03
2022-12-24T13:09:13.804Z,186.60
2022-12-24T13:11:49.455Z,203.83
2022-12-24T13:14:33.891Z,209.23
2022-12-24T13:17:19.890Z,224.47
2022-12-24T13:20:09.426Z,215.43
2022-12-24T13:22:38.066Z,225.40
2022-12-24T13:25:08.353Z,219.23
2022-12-24T13:27:36.998Z,228.77
2022-12-24T13:30:12.920Z,224.43
2022-12-24T13:33:02.352Z,217.20
2022-12-24T13:35:48.573Z,222.10
2022-12-24T13:38:33.751Z,217.37
2022-12-24T13:41:20.620Z,213.00
2022-12-24T13:46:56.636Z,215.73
2022-12-24T13:49:28.949Z,226.93
2022-12-24T13:52:24.286Z,235.07
2022-12-24T13:55:03.383Z,229.07
2022-12-24T13:57:33.908Z,230.37
2022-12-24T14:00:04.048Z,232.87
2022-12-24T14:02:36.332Z,235.40
2022-12-24T14:05:08.594Z,234.00
2022-12-24T14:07:38.359Z,236.60
2022-12-24T14:10:07.441Z,232.03
2022-12-24T14:12:49.810Z,243.97
2022-12-24T14:15:36.871Z,242.40
2022-12-24T14:18:06.808Z,251.97
2022-12-24T14:20:35.296Z,245.60
2022-12-24T14:23:05.046Z,257.73
2022-12-24T14:25:33.495Z,252.37
2022-12-24T14:28:05.231Z,250.43
2022-12-24T14:30:33.882Z,257.87
2022-12-24T14:33:02.256Z,259.53
2022-12-24T14:35:32.653Z,252.50
2022-12-24T14:38:03.428Z,265.23
2022-12-24T14:40:33.057Z,263.47
2022-12-24T14:43:05.008Z,265.67
2022-12-24T14:45:36.297Z,259.13
2022-12-24T14:48:10.616Z,262.13
2022-12-24T14:50:47.226Z,239.83
2022-12-24T14:53:21.157Z,253.40
2022-12-24T14:55:50.618Z,267.63
2022-12-24T14:58:24.786Z,267.13
2022-12-24T15:00:54.371Z,270.43
2022-12-24T15:03:23.960Z,278.50
2022-12-24T15:05:55.094Z,274.30
2022-12-24T15:08:27.844Z,273.23
2022-12-24T15:10:57.198Z,273.33
2022-12-24T15:13:29.584Z,273.23
2022-12-24T15:15:59.994Z,271.73
2022-12-24T15:18:29.923Z,267.13
2022-12-24T15:21:04.276Z,272.73
2022-12-24T15:23:34.293Z,271.83
2022-12-24T15:26:09.876Z,272.20
2022-12-24T15:28:39.259Z,275.80
2022-12-24T15:31:10.995Z,275.83
2022-12-24T15:33:39.950Z,279.80
2022-12-24T15:36:10.606Z,261.57
2022-12-24T15:38:39.964Z,263.23
2022-12-24T15:41:10.408Z,269.23
2022-12-24T15:43:41.455Z,260.77
2022-12-24T15:46:10.147Z,260.00
2022-12-24T15:48:39.050Z,257.20
2022-12-24T15:51:07.979Z,261.50
2022-12-24T15:53:40.422Z,262.93
2022-12-24T15:56:09.833Z,258.60
2022-12-24T15:58:39.499Z,253.30
2022-12-24T16:01:28.320Z,256.03
2022-12-24T16:03:58.319Z,256.23
2022-12-24T16:06:27.752Z,260.70
2022-12-24T16:08:58.790Z,250.57
2022-12-24T16:11:30.084Z,244.60
2022-12-24T16:14:03.874Z,225.77
2022-12-24T16:16:37.752Z,195.87
2022-12-24T16:19:07.231Z,174.03
2022-12-24T16:21:36.768Z,164.27
2022-12-24T16:24:08.565Z,146.33
2022-12-24T16:26:38.191Z,140.27
2022-12-24T16:29:06.600Z,136.87
2022-12-24T16:31:36.305Z,128.63
2022-12-24T16:34:05.197Z,124.33
2022-12-24T16:36:34.002Z,121.67
2022-12-24T16:39:20.599Z,115.93
2022-12-24T16:42:08.051Z,111.00
2022-12-24T16:44:36.565Z,116.27
2022-12-24T16:47:06.499Z,113.67
2022-12-24T16:49:38.200Z,109.60
2022-12-24T16:52:06.809Z,107.87
2022-12-24T16:54:35.196Z,106.77
2022-12-24T16:57:05.106Z,116.10
2022-12-24T16:59:33.778Z,112.40
2022-12-24T17:02:02.274Z,114.77
2022-12-24T17:04:32.920Z,110.13
2022-12-24T17:07:01.552Z,108.80
2022-12-24T17:09:29.931Z,110.87
2022-12-24T17:11:58.689Z,104.80
2022-12-24T17:14:28.486Z,105.33
2022-12-24T17:16:56.963Z,105.70
2022-12-24T17:19:25.404Z,105.63
2022-12-24T17:21:53.815Z,102.03
2022-12-24T17:24:22.339Z,97.47
2022-12-24T17:26:50.777Z,104.90
2022-12-24T17:29:19.175Z,105.47
2022-12-24T17:31:48.897Z,101.23
2022-12-24T17:34:17.588Z,103.80
2022-12-24T17:36:46.013Z,107.80
2022-12-24T17:39:14.401Z,107.63
2022-12-24T17:41:42.881Z,108.53
2022-12-24T17:44:13.465Z,111.83
2022-12-24T17:46:42.180Z,112.60
2022-12-24T17:49:12.103Z,107.30
2022-12-24T17:51:45.278Z,110.30
2022-12-24T17:54:14.785Z,110.73
2022-12-24T17:56:43.195Z,106.60
2022-12-24T17:59:11.557Z,111.90
2022-12-24T18:01:40.030Z,108.57
2022-12-24T18:04:08.843Z,119.50
2022-12-24T18:06:44.153Z,120.23
2022-12-24T18:09:15.837Z,126.47
2022-12-24T18:11:44.248Z,118.70
2022-12-24T18:14:14.131Z,119.33
2022-12-24T18:16:43.159Z,122.40
2022-12-24T18:19:13.357Z,116.70
2022-12-24T18:21:43.247Z,118.73
2022-12-24T18:24:12.710Z,114.23
2022-12-24T18:26:41.328Z,126.53
2022-12-24T18:29:09.695Z,115.00
2022-12-24T18:31:38.514Z,115.50
2022-12-24T18:34:08.084Z,114.90
2022-12-24T18:36:36.566Z,116.97
2022-12-24T18:39:06.812Z,117.53
2022-12-24T18:41:35.805Z,115.43
2022-12-24T18:44:04.352Z,116.70
2022-12-24T18:46:34.174Z,114.30
2022-12-24T18:49:03.412Z,121.17
2022-12-24T18:51:32.947Z,124.43
2022-12-24T18:54:02.702Z,129.70
2022-12-24T18:56:33.072Z,119.43
2022-12-24T18:59:02.030Z,116.20
2022-12-24T19:01:31.110Z,119.67
2022-12-24T19:03:59.967Z,122.23
2022-12-24T19:06:28.368Z,118.30
2022-12-24T19:08:58.986Z,113.90
2022-12-24T19:11:29.351Z,116.87
2022-12-24T19:13:59.216Z,114.17
2022-12-24T19:16:27.855Z,114.13
2022-12-24T19:18:56.356Z,114.77
2022-12-24T19:21:24.886Z,117.10
2022-12-24T19:23:53.314Z,110.80
2022-12-24T19:26:22.315Z,115.10
2022-12-24T19:28:51.117Z,116.67
2022-12-24T19:31:23.078Z,106.93
2022-12-24T19:33:52.941Z,114.80
2022-12-24T19:36:22.182Z,114.03
2022-12-24T19:38:50.689Z,113.73
2022-12-24T19:41:20.348Z,113.83
2022-12-24T19:43:50.167Z,106.53
2022-12-24T19:46:19.728Z,109.43
2022-12-24T19:48:51.639Z,107.73
2022-12-24T19:51:20.200Z,110.63
2022-12-24T19:53:48.699Z,111.00
2022-12-24T19:56:17.193Z,118.43
2022-12-24T19:58:45.894Z,114.57
2022-12-24T20:01:16.166Z,111.77
2022-12-24T20:03:44.871Z,112.57
2022-12-24T20:06:15.231Z,117.37
2022-12-24T20:08:43.844Z,114.97
2022-12-24T20:11:13.151Z,109.70
2022-12-24T20:13:42.161Z,114.10
2022-12-24T20:16:12.093Z,108.70
2022-12-24T20:18:40.763Z,109.17
2022-12-24T20:21:10.357Z,107.53
2022-12-24T20:23:40.595Z,111.67
2022-12-24T20:26:10.371Z,102.93
2022-12-24T20:28:39.050Z,108.10
2022-12-24T20:31:11.462Z,104.20
2022-12-24T20:33:40.121Z,103.13
2022-12-24T20:36:08.640Z,105.17
2022-12-24T20:38:37.634Z,101.10
2022-12-24T20:41:09.769Z,105.50
2022-12-24T20:43:45.022Z,110.10
2022-12-24T20:46:16.272Z,112.53
2022-12-24T20:48:44.727Z,103.07
2022-12-24T20:51:20.998Z,110.30
2022-12-24T20:53:52.457Z,106.50
2022-12-24T20:56:22.380Z,108.20
2022-12-24T20:58:50.807Z,107.97
2022-12-24T21:01:20.191Z,107.57
2022-12-24T21:03:48.827Z,113.27
2022-12-24T21:06:18.028Z,111.47
2022-12-24T21:08:46.721Z,109.93
2022-12-24T21:11:32.851Z,107.77
2022-12-24T21:14:03.047Z,109.67
2022-12-24T21:16:31.647Z,105.77
2022-12-24T21:19:00.258Z,117.27
2022-12-24T21:21:28.704Z,119.50
2022-12-24T21:23:57.311Z,111.27
2022-12-24T21:26:25.712Z,111.13
2022-12-24T21:28:54.138Z,109.53
2022-12-24T21:31:23.962Z,113.20
2022-12-24T21:33:52.455Z,113.40
2022-12-24T21:36:21.115Z,109.03
2022-12-24T21:38:49.531Z,112.73
2022-12-24T21:41:18.870Z,112.23
2022-12-24T21:43:48.145Z,110.20
2022-12-24T21:46:18.618Z,113.33
2022-12-24T21:49:06.485Z,105.70
2022-12-24T21:51:34.890Z,105.50
2022-12-24T21:54:21.050Z,109.07
2022-12-24T21:57:07.124Z,107.93
2022-12-24T21:59:35.560Z,109.40
2022-12-24T22:02:04.196Z,111.10
2022-12-24T22:04:34.522Z,111.47
2022-12-24T22:07:20.860Z,107.87
2022-12-24T22:10:07.210Z,109.73
2022-12-24T22:12:35.869Z,110.63
2022-12-24T22:15:06.347Z,110.47
2022-12-24T22:17:34.815Z,110.53
2022-12-24T22:20:04.758Z,111.83
2022-12-24T22:22:33.129Z,107.17
2022-12-24T22:25:01.526Z,107.10
2022-12-24T22:27:29.967Z,109.57
2022-12-24T22:29:58.777Z,105.40
2022-12-24T22:32:27.177Z,101.40
2022-12-24T22:34:55.798Z,104.03
2022-12-24T22:37:25.555Z,103.87
2022-12-24T22:39:53.989Z,102.47
2022-12-24T22:42:22.728Z,104.57
2022-12-24T22:44:51.284Z,105.87
2022-12-24T22:47:19.724Z,102.43
2022-12-24T22:49:49.983Z,103.53
2022-12-24T22:52:18.388Z,100.57
2022-12-24T22:54:48.158Z,105.07
2022-12-24T22:57:16.562Z,105.73
2022-12-24T22:59:45.120Z,106.87
2022-12-24T23:02:13.782Z,106.20
2022-12-24T23:04:42.539Z,104.57
2022-12-24T23:07:12.222Z,108.40
2022-12-24T23:09:41.064Z,104.50
2022-12-24T23:12:10.915Z,107.03
2022-12-24T23:14:56.560Z,106.73
2022-12-24T23:17:24.961Z,106.57
2022-12-24T23:19:53.383Z,102.83
2022-12-24T23:22:21.766Z,101.27
2022-12-24T23:24:50.206Z,101.50
2022-12-24T23:27:19.984Z,102.50
2022-12-24T23:29:48.390Z,109.27
2022-12-24T23:32:16.840Z,111.20
2022-12-24T23:34:45.362Z,105.57
2022-12-24T23:37:13.749Z,110.03
2022-12-24T23:39:42.212Z,111.50
2022-12-24T23:42:10.652Z,115.63
2022-12-24T23:44:40.804Z,113.77
2022-12-24T23:47:09.238Z,120.50
2022-12-24T23:49:37.697Z,106.70
2022-12-24T23:52:07.778Z,110.20
2022-12-24T23:54:36.467Z,109.63
2022-12-24T23:57:04.841Z,113.70
2022-12-24T23:59:34.306Z,114.77
